Terminal Aerodrome Forecast
Issued by NWS Sioux Falls, SD

Home | Current Version | Previous Version | Text Only | Print | Product List | Glossary On
Versions: 1 2 3 4 5 6 7 8 9 10 11 12 13 14
000
FTUS43 KFSD 280401 AAA
TAFFSD
TAF AMD
KFSD 280401Z 2804/2824 16013G19KT P6SM VCTS BKN050CB
      TEMPO 2804/2807 5SM -TSRA OVC040CB
     FM280900 17012KT P6SM OVC080
     FM281200 20012KT P6SM BKN080
     FM281400 25012KT P6SM BKN100
     FM281600 27012KT P6SM SCT120
     FM282000 30013KT P6SM FEW200=

USA.gov is the U.S. government's official web portal to all federal, state and local government web resources and services.